Flag for Spain

Past Weather in 37°22'47.1"N, 5°55'31.0"W, Spain — Yesterday and Last 2 Weeks

Currently: 75 °F. Sunny. (Weather station: Sevilla / San Pablo, Spain). See more current weather

Past Weather in 37°22'47.1"N, 5°55'31.0"W — Graph

°F

37°22'47.1"N, 5°55'31.0"W Temperature Yesterday

Maximum temperature yesterday: 77 °F (at 4:30 pm)
Minimum temperature yesterday: 55 °F (at 4:00 am)
Average temperature yesterday: 65 °F

High & Low Weather Summary for the Past Weeks

 TemperatureHumidityPressure
High88 °F (Mar 31, 4:30 pm)100% (Apr 3, 8:00 am)30.21 "Hg (Apr 3, 8:00 am)
Low50 °F (Apr 3, 8:00 am)17% (Mar 31, 2:30 pm)29.80 "Hg (Mar 31, 6:00 pm)
Average65 °F64%30.00 "Hg
* Reported Mar 29 2:00 pm — Apr 13 2:30 pm, 37°22'47.1"N, 5°55'31.0"W. Weather by CustomWeather, © 2021

Note: Actual official high and low records may vary slightly from our data, if they occured in-between our weather recording intervals... More about our weather records

37°22'47.1"N, 5°55'31.0"W Weather History for the Previous 24 Hours

Scroll right to see more
 ConditionsComfort  
Time TempWeatherWind HumidityBarometerVisibility
2:30 pm
Tue, Apr 13
75 °FSunny.2 mph41%30.09 "Hg10 mi
2:00 pm73 °FSunny.1 mph44%30.09 "Hg10 mi
1:30 pm73 °FSunny.2 mph47%30.12 "Hg10 mi
1:00 pm72 °FSunny.3 mph47%30.12 "Hg10 mi
12:30 pm70 °FPassing clouds.3 mph50%30.12 "HgN/A
12:00 pm68 °FSunny.3 mph56%30.15 "Hg10 mi
11:30 am66 °FPassing clouds.3 mph60%30.15 "HgN/A
11:00 am64 °FPassing clouds.6 mph68%30.15 "HgN/A
10:30 am63 °FPassing clouds.6 mph68%30.15 "HgN/A
10:00 am61 °FSunny.9 mph72%30.12 "Hg10 mi
9:30 am59 °FSunny.9 mph77%30.12 "Hg10 mi
9:00 am57 °FPassing clouds.6 mph82%30.12 "HgN/A
8:30 am55 °FSunny.7 mph88%30.12 "Hg10 mi
8:00 am54 °FPassing clouds.7 mph94%30.12 "HgN/A
7:30 am55 °FClear.5 mph88%30.12 "Hg10 mi
7:00 am55 °FClear.No wind94%30.12 "Hg10 mi
6:30 am55 °FClear.2 mph94%30.12 "Hg10 mi
6:00 am55 °FClear.5 mph94%30.12 "Hg10 mi
5:30 am55 °FClear.3 mph94%30.12 "Hg10 mi
5:00 am55 °FClear.1 mph94%30.12 "Hg10 mi
4:30 am55 °FClear.1 mph94%30.12 "Hg10 mi
4:00 am61 °FPassing clouds.3 mph83%30.15 "HgN/A
3:30 am59 °FClear.3 mph88%30.15 "Hg10 mi
3:00 am61 °FPassing clouds.3 mph83%30.15 "HgN/A
2:30 am59 °FPassing clouds.3 mph88%30.15 "HgN/A
1:30 am61 °FClear.5 mph77%30.15 "Hg10 mi
1:00 am63 °FPassing clouds.5 mph77%30.15 "HgN/A
12:30 am63 °FPassing clouds.7 mph73%30.15 "HgN/A
12:00 am64 °FPassing clouds.9 mph73%30.15 "HgN/A
11:30 pm
Mon, Apr 12
64 °FPassing clouds.9 mph73%30.15 "HgN/A
11:00 pm66 °FClear.10 mph68%30.12 "Hg10 mi
10:30 pm68 °FPassing clouds.9 mph64%30.12 "HgN/A
10:00 pm68 °FPassing clouds.10 mph60%30.12 "HgN/A
9:30 pm70 °FPassing clouds.9 mph57%30.09 "HgN/A
9:00 pm70 °FPassing clouds.10 mph57%30.09 "HgN/A
8:30 pm75 °FSunny.3 mph44%30.09 "Hg10 mi
8:00 pm75 °FSunny.5 mph41%30.09 "Hg10 mi
7:30 pm75 °FPassing clouds.6 mph41%30.09 "HgN/A
7:00 pm77 °FPassing clouds.3 mph39%30.07 "HgN/A
6:30 pm75 °FPassing clouds.5 mph41%30.07 "HgN/A
6:00 pm77 °FPassing clouds.6 mph42%30.07 "HgN/A
5:30 pm75 °FPassing clouds.5 mph39%30.09 "HgN/A
5:00 pm77 °FPassing clouds.3 mph39%30.09 "HgN/A
4:30 pm77 °FSunny.1 mph39%30.09 "Hg10 mi
4:00 pm73 °FSunny.3 mph41%30.12 "Hg10 mi
3:30 pm73 °FPassing clouds.6 mph47%30.12 "HgN/A
3:00 pm73 °FPassing clouds.6 mph47%30.12 "HgN/A
Weather by CustomWeather, © 2021

See weather overview